Time;durP1;ratioP1;P1;durP2;ratioP2;P2;SDS_P1;SDS_P2;PMS_P1;PMS_P2;Temp;Humidity;BMP_temperature;BMP_pressure;BME280_temperature;BME280_humidity;BME280_pressure;Samples;Min_cycle;Max_cycle;Signal;HPM_P1;HPM_P2
2022/04/01 00:02:12;;;;;;;1.37;1.27;;;5.30;1.00;;;;;;5071000;28;20670;-67
2022/04/01 00:04:39;;;;;;;1.50;1.40;;;5.20;1.00;;;;;;5070549;28;20251;-70
2022/04/01 00:07:08;;;;;;;1.70;1.60;;;5.30;1.00;;;;;;5070779;28;20226;-68
2022/04/01 00:09:34;;;;;;;1.90;1.70;;;5.20;1.00;;;;;;5070382;28;20206;-69
2022/04/01 00:12:02;;;;;;;1.93;1.73;;;5.20;1.00;;;;;;5070649;28;20206;-71
2022/04/01 00:14:28;;;;;;;2.83;2.13;;;5.20;7.60;;;;;;5071163;28;20248;-69
2022/04/01 00:16:55;;;;;;;1.53;1.33;;;5.10;1.00;;;;;;5070599;28;20252;-68
2022/04/01 00:19:22;;;;;;;1.93;1.63;;;5.00;1.00;;;;;;5070714;28;20210;-69
2022/04/01 00:21:49;;;;;;;2.13;1.97;;;4.90;1.00;;;;;;5070860;28;20202;-68
2022/04/01 00:24:18;;;;;;;2.27;1.90;;;4.80;1.00;;;;;;5070900;28;20255;-68
2022/04/01 00:26:45;;;;;;;1.80;1.70;;;4.80;1.00;;;;;;5070236;28;20206;-68
2022/04/01 00:29:20;;;;;;;1.60;1.50;;;4.70;1.00;;;;;;5070784;28;20216;-67
2022/04/01 00:31:49;;;;;;;1.83;1.70;;;4.70;1.00;;;;;;5070467;28;20205;-69
2022/04/01 00:34:16;;;;;;;2.17;1.80;;;4.70;1.00;;;;;;5070666;28;20234;-69
2022/04/01 00:36:44;;;;;;;2.07;1.50;;;4.70;1.00;;;;;;5070269;28;20244;-68
2022/04/01 00:39:12;;;;;;;2.77;1.93;;;4.70;1.00;;;;;;5070841;28;20202;-68
2022/04/01 00:41:41;;;;;;;3.00;1.90;;;4.60;1.00;;;;;;5070183;28;20241;-68
2022/04/01 00:44:16;;;;;;;2.00;1.90;;;4.70;1.00;;;;;;5070627;28;20654;-67
2022/04/01 00:46:44;;;;;;;1.77;1.63;;;4.60;1.00;;;;;;5070645;28;20289;-67
2022/04/01 00:49:11;;;;;;;1.60;1.50;;;4.60;1.00;;;;;;5070811;28;20210;-67
2022/04/01 00:51:41;;;;;;;1.33;1.20;;;4.50;1.00;;;;;;5070342;28;20255;-68
2022/04/01 00:54:09;;;;;;;1.37;1.27;;;4.50;1.00;;;;;;5070232;28;20220;-70
2022/04/01 00:56:37;;;;;;;1.63;1.53;;;4.50;1.00;;;;;;5070097;28;20248;-73
2022/04/01 00:59:08;;;;;;;1.63;1.50;;;4.50;1.00;;;;;;5071015;28;20206;-72
2022/04/01 01:01:36;;;;;;;2.03;1.93;;;4.50;1.00;;;;;;5074105;28;20198;-70
2022/04/01 01:04:03;;;;;;;2.43;1.47;;;4.50;1.00;;;;;;5074547;28;20206;-70
2022/04/01 01:06:32;;;;;;;1.17;1.07;;;4.50;1.00;;;;;;5074189;28;20202;-71
2022/04/01 01:09:00;;;;;;;1.67;1.57;;;4.50;1.00;;;;;;5074373;28;20233;-70
2022/04/01 01:11:28;;;;;;;2.43;1.43;;;4.50;1.00;;;;;;5074516;28;20540;-72
2022/04/01 01:13:55;;;;;;;3.50;1.40;;;4.50;1.00;;;;;;5073930;28;20228;-70
2022/04/01 01:16:24;;;;;;;3.73;1.43;;;4.50;1.00;;;;;;5074237;28;20202;-70
2022/04/01 01:19:01;;;;;;;1.17;1.07;;;4.50;1.00;;;;;;5073636;28;20263;-70
2022/04/01 01:21:28;;;;;;;2.10;1.10;;;4.40;1.00;;;;;;5074591;28;20247;-75
2022/04/01 01:24:03;;;;;;;1.30;1.20;;;4.40;1.00;;;;;;5073745;28;20207;-74
2022/04/01 01:26:32;;;;;;;1.20;1.10;;;4.40;1.00;;;;;;5073879;28;20649;-73
2022/04/01 01:29:00;;;;;;;1.53;1.43;;;4.40;1.00;;;;;;5074295;28;20230;-70
2022/04/01 01:31:27;;;;;;;1.40;1.30;;;4.40;1.00;;;;;;5074305;28;20259;-70
2022/04/01 01:33:55;;;;;;;1.60;1.50;;;4.40;1.00;;;;;;5073508;28;20275;-70
2022/04/01 01:36:23;;;;;;;1.93;1.53;;;4.40;1.00;;;;;;5073781;28;20202;-72
2022/04/01 01:38:50;;;;;;;1.93;1.77;;;4.30;1.00;;;;;;5073050;28;20206;-70
2022/04/01 01:41:17;;;;;;;3.40;1.67;;;4.30;1.00;;;;;;5073563;28;20206;-71
2022/04/01 01:43:46;;;;;;;1.60;1.50;;;4.40;1.00;;;;;;5073228;28;20202;-72
2022/04/01 01:46:14;;;;;;;1.90;1.30;;;4.30;1.00;;;;;;5073513;28;20213;-71
2022/04/01 01:48:41;;;;;;;3.23;1.50;;;4.30;1.00;;;;;;5073218;28;20237;-72
2022/04/01 01:56:37;;;;;;;3.20;1.80;;;4.20;1.00;;;;;;5072979;28;20388;-71
2022/04/01 01:59:06;;;;;;;1.53;1.43;;;4.00;1.00;;;;;;5073466;28;20210;-72
2022/04/01 02:01:33;;;;;;;3.20;1.70;;;4.10;12.10;;;;;;5073033;28;20331;-71
2022/04/01 02:04:01;;;;;;;2.90;2.03;;;4.00;1.00;;;;;;5073508;28;20280;-68
2022/04/01 02:06:29;;;;;;;2.63;2.43;;;3.90;2.10;;;;;;5073492;28;20198;-68
2022/04/01 02:08:56;;;;;;;2.40;1.90;;;3.90;1.00;;;;;;5073033;28;20230;-68
2022/04/01 02:11:23;;;;;;;2.57;2.37;;;3.90;3.00;;;;;;5072321;28;20263;-68
2022/04/01 02:13:50;;;;;;;3.07;2.83;;;3.90;1.00;;;;;;5072652;28;20739;-70
2022/04/01 02:16:21;;;;;;;1.40;1.30;;;3.90;1.00;;;;;;5073039;28;20210;-67
2022/04/01 02:18:49;;;;;;;2.27;1.90;;;3.90;1.00;;;;;;5072587;28;20202;-71
2022/04/01 02:21:16;;;;;;;2.50;1.83;;;4.10;8.60;;;;;;5072921;28;20210;-69
2022/04/01 02:23:45;;;;;;;4.70;2.57;;;4.00;1.00;;;;;;5072588;28;20198;-69
2022/04/01 02:26:13;;;;;;;2.37;1.73;;;4.00;1.00;;;;;;5072976;28;20293;-71
2022/04/01 02:28:41;;;;;;;2.30;2.13;;;4.00;1.00;;;;;;5072357;28;20316;-74
2022/04/01 02:31:11;;;;;;;1.93;1.43;;;4.00;1.00;;;;;;5072727;28;20740;-72
2022/04/01 02:33:39;;;;;;;3.23;2.40;;;4.10;1.00;;;;;;5072340;28;20206;-70
2022/04/01 02:36:10;;;;;;;1.83;1.73;;;4.10;1.00;;;;;;5072848;28;20276;-72
2022/04/01 02:38:38;;;;;;;2.73;2.27;;;4.10;1.00;;;;;;5072249;28;20739;-70
2022/04/01 02:41:06;;;;;;;4.30;2.40;;;4.20;1.00;;;;;;5072386;28;20289;-70
2022/04/01 02:43:34;;;;;;;1.83;1.73;;;4.10;1.00;;;;;;5071915;28;20213;-70
2022/04/01 02:46:02;;;;;;;2.27;1.27;;;4.10;1.00;;;;;;5072695;28;20206;-70
2022/04/01 02:48:29;;;;;;;2.10;1.90;;;4.30;1.00;;;;;;5072857;28;20244;-69
2022/04/01 02:50:58;;;;;;;1.63;1.40;;;4.20;1.00;;;;;;5072066;28;20210;-71
2022/04/01 02:53:25;;;;;;;1.80;1.70;;;4.20;1.00;;;;;;5072426;28;20225;-69
2022/04/01 02:55:52;;;;;;;2.50;2.03;;;4.10;1.00;;;;;;5071831;28;20198;-69
2022/04/01 02:58:19;;;;;;;2.83;1.63;;;4.10;1.00;;;;;;5072470;28;20255;-69
2022/04/01 03:00:46;;;;;;;2.97;1.67;;;4.10;1.00;;;;;;5072006;28;20252;-70
2022/04/01 03:03:13;;;;;;;1.60;1.40;;;4.20;1.00;;;;;;5072291;28;20292;-70
2022/04/01 03:05:42;;;;;;;3.07;2.07;;;4.10;1.00;;;;;;5071375;28;20255;-69
2022/04/01 03:08:11;;;;;;;1.97;1.70;;;4.10;1.00;;;;;;5071889;28;20229;-68
2022/04/01 03:10:39;;;;;;;1.87;1.30;;;4.00;1.00;;;;;;5071545;28;20213;-69
2022/04/01 03:13:08;;;;;;;1.80;1.63;;;3.90;1.00;;;;;;5072128;28;20201;-70
2022/04/01 03:15:36;;;;;;;2.63;1.93;;;3.90;1.00;;;;;;5071546;28;20614;-70
2022/04/01 03:18:04;;;;;;;2.27;1.93;;;3.90;1.00;;;;;;5071669;28;20205;-70
2022/04/01 03:20:35;;;;;;;2.40;2.20;;;3.90;1.00;;;;;;5071697;28;20207;-70
2022/04/01 03:23:03;;;;;;;2.47;2.13;;;3.80;1.00;;;;;;5071483;28;20202;-69
2022/04/01 03:25:33;;;;;;;3.03;2.10;;;3.90;6.70;;;;;;5071701;28;20202;-71
2022/04/01 03:28:02;;;;;;;1.80;1.70;;;3.80;1.00;;;;;;5071985;28;20231;-69
2022/04/01 03:30:29;;;;;;;3.00;1.70;;;3.80;1.00;;;;;;5071828;28;20210;-70
2022/04/01 03:32:57;;;;;;;5.90;2.07;;;3.80;8.20;;;;;;5071520;28;20624;-70
2022/04/01 03:35:26;;;;;;;2.57;1.93;;;3.70;8.80;;;;;;5071219;28;20205;-70
2022/04/01 03:37:53;;;;;;;1.83;1.73;;;3.60;23.00;;;;;;5071258;28;20249;-69
2022/04/01 03:40:22;;;;;;;2.10;1.67;;;3.60;50.30;;;;;;5071367;28;20210;-70
2022/04/01 03:42:55;;;;;;;2.77;2.57;;;3.60;71.50;;;;;;5071086;28;20255;-69
2022/04/01 03:45:23;;;;;;;2.07;1.83;;;3.50;48.30;;;;;;5071356;28;20202;-68
2022/04/01 03:47:59;;;;;;;1.90;1.73;;;3.40;88.20;;;;;;5070756;28;20635;-69
2022/04/01 03:50:33;;;;;;;2.03;1.63;;;3.50;96.50;;;;;;5071260;28;20197;-68
2022/04/01 03:53:04;;;;;;;2.83;2.53;;;3.30;96.10;;;;;;5071213;28;20670;-69
2022/04/01 03:55:33;;;;;;;3.10;2.60;;;3.30;99.90;;;;;;5071217;28;20207;-68
2022/04/01 03:58:08;;;;;;;1.80;1.70;;;3.40;99.90;;;;;;5071307;28;20297;-69
2022/04/01 04:00:35;;;;;;;5.17;2.00;;;3.40;99.90;;;;;;5070645;28;20687;-69
2022/04/01 04:03:07;;;;;;;1.70;1.60;;;3.40;99.90;;;;;;5070865;28;20554;-68
2022/04/01 04:05:36;;;;;;;3.00;1.90;;;3.40;99.90;;;;;;5070684;28;20289;-68
2022/04/01 04:08:04;;;;;;;2.57;2.13;;;3.50;99.90;;;;;;5070858;28;20210;-70
2022/04/01 04:10:32;;;;;;;4.90;2.33;;;3.50;99.90;;;;;;5071067;28;20251;-69
2022/04/01 04:13:00;;;;;;;3.07;2.77;;;3.40;99.90;;;;;;5071138;28;20201;-68
2022/04/01 04:15:39;;;;;;;2.80;2.50;;;3.40;92.90;;;;;;5071194;28;20700;-69
2022/04/01 04:18:11;;;;;;;3.33;2.17;;;3.40;98.50;;;;;;5070469;28;20752;-69
2022/04/01 04:20:45;;;;;;;2.80;1.77;;;3.40;73.10;;;;;;5070454;28;20659;-69
2022/04/01 04:23:20;;;;;;;2.30;2.10;;;3.40;39.80;;;;;;5070867;28;20734;-70
2022/04/01 04:26:05;;;;;;;2.67;2.07;;;3.40;68.10;;;;;;5070470;28;20210;-68
2022/04/01 04:28:37;;;;;;;3.80;2.20;;;3.50;78.90;;;;;;5070639;28;20229;-68
2022/04/01 04:31:09;;;;;;;2.47;2.17;;;3.40;47.60;;;;;;5070601;28;20620;-70
2022/04/01 04:33:44;;;;;;;3.63;2.70;;;3.30;61.20;;;;;;5069693;28;20252;-67
2022/04/01 04:36:11;;;;;;;2.27;1.80;;;3.40;69.00;;;;;;5070697;28;20276;-68
2022/04/01 04:38:39;;;;;;;1.73;1.63;;;3.40;58.80;;;;;;5070230;28;20678;-68
2022/04/01 04:41:09;;;;;;;4.40;1.90;;;3.40;53.50;;;;;;5070630;28;20210;-67
2022/04/01 04:43:39;;;;;;;2.13;1.90;;;3.50;57.20;;;;;;5070320;28;20214;-67
2022/04/01 04:46:09;;;;;;;5.80;2.27;;;3.50;44.70;;;;;;5070682;28;20297;-68
2022/04/01 04:48:38;;;;;;;3.60;2.07;;;3.40;28.50;;;;;;5070123;28;20234;-68
2022/04/01 04:51:05;;;;;;;6.23;2.63;;;3.40;23.40;;;;;;5070510;28;20210;-68
2022/04/01 04:53:35;;;;;;;3.27;1.97;;;3.50;61.30;;;;;;5070662;28;20202;-68
2022/04/01 04:56:03;;;;;;;2.37;2.13;;;3.50;20.90;;;;;;5070888;28;20580;-71
2022/04/01 04:58:32;;;;;;;1.50;1.40;;;3.50;1.00;;;;;;5080042;28;20205;-69
2022/04/01 05:01:03;;;;;;;5.13;2.03;;;3.60;1.00;;;;;;5076266;28;20215;-70
2022/04/01 05:03:49;;;;;;;2.80;1.93;;;3.50;1.00;;;;;;5083204;28;20209;-68
2022/04/01 05:06:23;;;;;;;3.83;2.03;;;3.50;1.00;;;;;;5080198;28;20251;-69
2022/04/01 05:08:58;;;;;;;1.73;1.47;;;3.60;1.00;;;;;;5090168;28;20225;-71
2022/04/01 05:11:35;;;;;;;1.87;1.37;;;3.60;1.00;;;;;;5089773;28;20255;-70
2022/04/01 05:14:11;;;;;;;4.60;2.03;;;3.60;1.00;;;;;;5090013;28;20629;-69
2022/04/01 05:16:51;;;;;;;3.73;1.83;;;3.60;1.00;;;;;;5081217;28;20237;-71
2022/04/01 05:19:26;;;;;;;1.90;1.57;;;3.50;1.00;;;;;;5076365;28;20206;-69
2022/04/01 05:22:01;;;;;;;2.90;1.63;;;3.50;1.00;;;;;;5089936;28;20274;-70
2022/04/01 05:24:37;;;;;;;2.90;1.73;;;3.50;1.00;;;;;;5090230;28;20239;-70
2022/04/01 05:27:07;;;;;;;3.50;1.23;;;3.50;1.00;;;;;;5089669;28;20771;-69
2022/04/01 05:29:42;;;;;;;15.30;6.63;;;3.60;1.00;;;;;;5089832;28;20607;-69
2022/04/01 05:32:11;;;;;;;4.43;1.50;;;3.50;1.00;;;;;;5089819;28;20601;-70
2022/04/01 05:34:44;;;;;;;5.67;2.13;;;3.50;1.00;;;;;;5090163;28;20244;-70
2022/04/01 05:37:13;;;;;;;3.90;2.57;;;3.70;1.00;;;;;;5089384;28;20201;-68
2022/04/01 05:39:42;;;;;;;1.97;1.40;;;3.70;1.00;;;;;;5090123;28;20214;-68
2022/04/01 05:42:10;;;;;;;4.60;2.17;;;3.60;1.00;;;;;;5089627;28;20205;-69
2022/04/01 05:44:38;;;;;;;4.00;2.10;;;3.60;1.00;;;;;;5089905;28;20296;-70
2022/04/01 05:47:07;;;;;;;2.97;2.10;;;3.60;1.00;;;;;;5092058;28;20201;-70
2022/04/01 05:49:38;;;;;;;4.47;2.43;;;3.50;1.00;;;;;;5093180;28;20615;-70
2022/04/01 05:52:08;;;;;;;3.40;1.87;;;3.50;1.00;;;;;;5093256;28;20205;-71
2022/04/01 05:54:37;;;;;;;1.87;1.20;;;3.50;1.00;;;;;;5081817;28;20247;-70
2022/04/01 05:57:08;;;;;;;2.17;1.33;;;3.50;1.00;;;;;;5093214;28;20209;-70
2022/04/01 05:59:35;;;;;;;2.03;1.80;;;3.50;1.00;;;;;;5093678;28;20202;-70
2022/04/01 06:02:22;;;;;;;3.27;1.70;;;3.50;1.00;;;;;;5090958;28;20605;-70
2022/04/01 06:05:05;;;;;;;6.47;2.40;;;3.50;1.00;;;;;;5084273;28;20213;-69
2022/04/01 06:07:39;;;;;;;2.37;1.87;;;3.60;1.00;;;;;;5092740;28;20259;-70
2022/04/01 06:10:09;;;;;;;4.07;2.77;;;3.50;1.00;;;;;;5092517;28;20233;-69
2022/04/01 06:12:47;;;;;;;2.43;1.33;;;3.50;1.00;;;;;;5093031;28;20205;-68
2022/04/01 06:15:19;;;;;;;2.80;1.90;;;3.50;1.00;;;;;;5092663;28;20205;-70
2022/04/01 06:18:00;;;;;;;3.03;1.90;;;3.50;1.00;;;;;;5093067;28;20198;-70
2022/04/01 06:20:29;;;;;;;2.83;1.90;;;3.50;1.00;;;;;;5092409;28;20680;-69
2022/04/01 06:23:05;;;;;;;5.93;4.77;;;3.40;1.00;;;;;;5092882;28;20285;-71
2022/04/01 06:25:39;;;;;;;5.13;1.57;;;3.40;1.00;;;;;;5092365;28;20289;-68
2022/04/01 06:28:24;;;;;;;7.00;2.07;;;3.50;1.00;;;;;;5085160;28;20210;-69
2022/04/01 06:30:53;;;;;;;3.70;1.67;;;3.40;1.00;;;;;;5077275;28;20226;-68
2022/04/01 06:33:30;;;;;;;3.50;1.77;;;3.40;1.00;;;;;;5084710;28;20198;-68
2022/04/01 06:36:00;;;;;;;2.53;1.70;;;3.50;1.00;;;;;;5094772;28;20279;-68
2022/04/01 06:38:39;;;;;;;4.50;1.73;;;3.50;1.00;;;;;;5081823;28;20202;-68
2022/04/01 06:41:08;;;;;;;6.33;2.50;;;3.60;1.00;;;;;;5086647;28;20301;-70
2022/04/01 06:43:35;;;;;;;2.87;2.10;;;3.50;1.00;;;;;;5091116;28;20205;-69
2022/04/01 06:46:03;;;;;;;5.53;2.67;;;3.60;1.00;;;;;;5082626;28;20233;-71
2022/04/01 06:48:31;;;;;;;3.57;3.17;;;3.60;1.00;;;;;;5092279;28;20205;-69
2022/04/01 06:50:58;;;;;;;6.67;1.93;;;3.70;1.00;;;;;;5083790;28;20232;-69
2022/04/01 06:53:26;;;;;;;2.93;1.90;;;3.60;1.00;;;;;;5080868;28;20246;-71
2022/04/01 06:55:55;;;;;;;5.33;2.23;;;3.60;1.00;;;;;;5079893;28;20214;-70
2022/04/01 06:58:26;;;;;;;2.27;1.33;;;3.70;1.00;;;;;;5082223;28;20209;-70
2022/04/01 07:00:53;;;;;;;2.63;1.57;;;3.70;1.00;;;;;;5090616;28;20205;-69
2022/04/01 07:03:21;;;;;;;5.47;2.03;;;3.70;1.00;;;;;;5081459;28;20297;-70
2022/04/01 07:05:49;;;;;;;5.03;1.30;;;3.80;1.00;;;;;;5080120;28;20297;-70
2022/04/01 07:08:19;;;;;;;3.20;1.80;;;3.90;1.00;;;;;;5071367;28;20280;-71
2022/04/01 07:10:47;;;;;;;4.57;1.83;;;4.10;1.00;;;;;;5072021;28;20299;-71
2022/04/01 07:13:15;;;;;;;6.77;2.30;;;4.00;1.00;;;;;;5071529;28;20297;-70
2022/04/01 07:15:42;;;;;;;5.00;3.10;;;4.10;1.00;;;;;;5076893;28;20267;-70
2022/04/01 07:18:10;;;;;;;3.93;2.17;;;4.30;1.00;;;;;;5090555;28;20284;-70
2022/04/01 07:20:36;;;;;;;3.77;1.60;;;4.30;1.00;;;;;;5071834;28;20207;-70
2022/04/01 07:23:04;;;;;;;2.13;1.80;;;4.20;1.00;;;;;;5071742;28;20214;-71
2022/04/01 07:25:32;;;;;;;4.20;2.37;;;4.20;1.00;;;;;;5071897;28;20206;-71
2022/04/01 07:27:59;;;;;;;3.83;1.87;;;4.10;1.00;;;;;;5087970;28;20209;-70
2022/04/01 07:30:27;;;;;;;4.77;2.37;;;4.30;1.00;;;;;;5079936;28;20311;-71
2022/04/01 07:32:58;;;;;;;7.90;2.47;;;4.30;1.00;;;;;;5088521;28;20628;-72
2022/04/01 07:35:26;;;;;;;6.83;2.77;;;4.40;1.00;;;;;;5085967;28;20670;-72
2022/04/01 07:37:53;;;;;;;4.03;1.70;;;4.40;1.00;;;;;;5080974;28;20603;-70
2022/04/01 07:40:21;;;;;;;9.67;2.50;;;4.30;1.00;;;;;;5084872;28;20206;-70
2022/04/01 07:42:49;;;;;;;2.80;1.73;;;4.20;1.00;;;;;;5085324;28;20209;-70
2022/04/01 07:45:16;;;;;;;3.90;1.80;;;4.20;1.00;;;;;;5090706;28;20292;-74
2022/04/01 07:47:45;;;;;;;3.80;1.70;;;4.30;1.00;;;;;;5085991;28;20213;-74
2022/04/01 07:50:15;;;;;;;2.87;1.83;;;4.40;1.00;;;;;;5091169;28;20233;-73
2022/04/01 07:52:43;;;;;;;4.27;1.67;;;4.10;1.00;;;;;;5090933;28;20577;-70
2022/04/01 07:55:11;;;;;;;8.53;2.63;;;4.10;1.00;;;;;;5091453;28;20206;-72
2022/04/01 07:57:39;;;;;;;4.10;1.73;;;4.20;1.00;;;;;;5088393;28;20624;-71
2022/04/01 08:00:10;;;;;;;3.23;1.83;;;4.40;1.00;;;;;;5081833;28;20211;-70
2022/04/01 08:02:38;;;;;;;4.83;1.80;;;4.40;1.00;;;;;;5086576;28;20280;-69
2022/04/01 08:05:08;;;;;;;4.50;1.77;;;4.70;1.00;;;;;;5086225;28;20212;-72
2022/04/01 08:07:35;;;;;;;5.83;1.93;;;4.70;1.00;;;;;;5074695;28;20244;-71
2022/04/01 08:10:03;;;;;;;3.73;2.03;;;4.70;1.00;;;;;;5071899;28;20681;-70
2022/04/01 08:12:34;;;;;;;3.83;2.70;;;4.80;1.00;;;;;;5080066;28;20373;-70
2022/04/01 08:15:01;;;;;;;3.50;1.70;;;4.80;1.00;;;;;;5087308;28;20210;-69
2022/04/01 08:17:29;;;;;;;3.40;1.27;;;4.90;1.00;;;;;;5081505;28;20206;-72
2022/04/01 08:19:56;;;;;;;6.30;1.87;;;4.70;1.00;;;;;;5070821;28;20613;-71
2022/04/01 08:22:24;;;;;;;5.53;1.53;;;4.90;1.00;;;;;;5070327;28;20202;-72
2022/04/01 08:24:51;;;;;;;5.13;1.53;;;5.20;1.00;;;;;;5070833;28;20657;-71
2022/04/01 08:27:18;;;;;;;4.50;2.03;;;4.80;1.00;;;;;;5072015;28;20949;-72
2022/04/01 08:29:45;;;;;;;8.67;3.43;;;5.30;1.00;;;;;;5075504;28;20290;-70
2022/04/01 08:32:12;;;;;;;4.67;2.60;;;5.10;1.00;;;;;;5090669;28;20284;-69
2022/04/01 08:34:40;;;;;;;7.60;1.80;;;5.40;1.00;;;;;;5077586;28;20210;-70
2022/04/01 08:37:07;;;;;;;7.17;2.57;;;5.30;1.00;;;;;;5075673;28;20258;-71
2022/04/01 08:39:36;;;;;;;10.23;2.30;;;5.10;1.00;;;;;;5079918;28;20221;-70
2022/04/01 08:42:05;;;;;;;3.53;2.03;;;5.10;1.00;;;;;;5084303;28;20209;-69
2022/04/01 08:44:32;;;;;;;3.60;1.70;;;5.50;1.00;;;;;;5077285;28;20251;-73
2022/04/01 08:46:59;;;;;;;5.43;1.70;;;5.50;1.00;;;;;;5090169;28;20262;-70
2022/04/01 08:49:27;;;;;;;5.80;1.87;;;5.40;1.00;;;;;;5089743;28;20213;-72
2022/04/01 08:51:54;;;;;;;6.07;3.33;;;5.20;1.00;;;;;;5072995;28;20209;-70
2022/04/01 08:54:21;;;;;;;3.47;2.30;;;5.20;1.00;;;;;;5069998;28;20210;-69
2022/04/01 08:56:49;;;;;;;6.30;2.50;;;5.60;1.00;;;;;;5070448;28;20206;-70
2022/04/01 08:59:16;;;;;;;4.80;1.67;;;6.00;1.00;;;;;;5070142;28;20210;-71
2022/04/01 09:01:44;;;;;;;8.20;2.83;;;6.30;1.00;;;;;;5069848;28;20210;-71
2022/04/01 09:04:23;;;;;;;5.03;1.97;;;5.90;1.00;;;;;;5069677;28;20198;-71
2022/04/01 09:06:51;;;;;;;8.40;2.93;;;5.40;1.00;;;;;;5070393;28;20209;-71
2022/04/01 09:09:26;;;;;;;15.43;4.23;;;5.30;1.00;;;;;;5069788;28;20213;-70
2022/04/01 09:12:12;;;;;;;5.93;3.10;;;5.80;1.00;;;;;;5070290;28;20206;-70
2022/04/01 09:14:41;;;;;;;6.10;2.47;;;6.70;1.00;;;;;;5070383;28;20198;-72
2022/04/01 09:17:11;;;;;;;10.80;4.43;;;6.10;1.00;;;;;;5069881;28;20244;-69
2022/04/01 09:19:39;;;;;;;6.57;4.27;;;5.70;1.00;;;;;;5070085;28;20281;-72
2022/04/01 09:22:20;;;;;;;10.47;5.07;;;6.00;1.00;;;;;;5074450;28;20210;-71
2022/04/01 09:24:59;;;;;;;13.07;4.63;;;5.70;1.00;;;;;;5074101;28;20206;-71
2022/04/01 09:27:46;;;;;;;11.97;5.03;;;5.50;1.00;;;;;;5088480;28;20270;-71
2022/04/01 09:30:15;;;;;;;7.70;2.63;;;5.90;1.00;;;;;;5093489;28;20232;-72
2022/04/01 09:32:44;;;;;;;8.13;3.17;;;5.80;1.00;;;;;;5093908;28;20745;-75
2022/04/01 09:35:12;;;;;;;12.47;3.73;;;5.90;1.00;;;;;;5093837;28;20205;-70
2022/04/01 09:37:41;;;;;;;9.17;2.93;;;6.10;1.00;;;;;;5093893;28;20611;-70
2022/04/01 09:40:10;;;;;;;11.10;4.00;;;6.50;1.00;;;;;;5093859;28;20217;-70
2022/04/01 09:42:38;;;;;;;16.17;6.87;;;6.40;1.00;;;;;;5094173;28;20202;-70
2022/04/01 09:45:08;;;;;;;10.77;5.00;;;6.20;1.00;;;;;;5094347;28;20202;-70
2022/04/01 09:47:39;;;;;;;5.60;2.20;;;6.20;1.00;;;;;;5093836;28;20293;-71
2022/04/01 09:50:14;;;;;;;3.53;1.93;;;6.00;1.00;;;;;;5094128;28;20230;-71
2022/04/01 09:52:42;;;;;;;2.37;1.77;;;6.20;1.00;;;;;;5093468;28;20208;-70
2022/04/01 09:55:10;;;;;;;6.40;1.50;;;6.20;1.00;;;;;;5094032;28;20198;-71
2022/04/01 09:57:37;;;;;;;4.43;1.40;;;6.00;1.00;;;;;;5094001;28;20243;-72
2022/04/01 10:00:09;;;;;;;3.90;1.50;;;6.00;1.00;;;;;;5094098;28;20652;-71
2022/04/01 10:02:39;;;;;;;3.47;1.73;;;5.90;1.00;;;;;;5093684;28;20202;-70
2022/04/01 10:05:07;;;;;;;4.40;1.90;;;5.70;1.00;;;;;;5093518;28;20197;-70
2022/04/01 10:07:35;;;;;;;4.63;1.47;;;5.50;1.00;;;;;;5093300;28;20610;-71
2022/04/01 10:10:06;;;;;;;3.17;1.47;;;5.40;1.00;;;;;;5093011;28;20555;-72
2022/04/01 10:12:40;;;;;;;6.77;1.70;;;5.60;1.00;;;;;;5084877;28;20291;-71
2022/04/01 10:15:10;;;;;;;3.27;1.90;;;6.50;1.00;;;;;;5077391;28;20223;-73
2022/04/01 10:17:40;;;;;;;2.90;2.00;;;8.00;1.00;;;;;;5082571;28;20201;-72
2022/04/01 10:20:09;;;;;;;5.03;1.30;;;7.30;1.00;;;;;;5083415;28;20249;-72
2022/04/01 10:22:38;;;;;;;4.53;1.60;;;7.30;1.00;;;;;;5089179;28;20290;-73
2022/04/01 10:25:11;;;;;;;4.13;1.43;;;7.60;1.00;;;;;;5080431;28;20734;-70
2022/04/01 10:27:40;;;;;;;2.23;1.90;;;7.20;1.00;;;;;;5081410;28;20674;-73
2022/04/01 10:30:12;;;;;;;4.37;1.07;;;7.00;1.00;;;;;;5092153;28;20212;-73
2022/04/01 10:32:41;;;;;;;2.47;1.37;;;7.60;1.00;;;;;;5085154;28;20732;-74
2022/04/01 10:35:22;;;;;;;7.87;2.50;;;6.80;1.00;;;;;;5087340;28;20220;-73
2022/04/01 10:37:54;;;;;;;3.67;1.83;;;6.40;1.00;;;;;;5073021;28;20263;-72
2022/04/01 10:40:21;;;;;;;4.40;1.87;;;6.40;1.00;;;;;;5072747;28;20210;-71
2022/04/01 10:42:49;;;;;;;4.90;1.90;;;6.40;1.00;;;;;;5092934;28;20248;-71
2022/04/01 10:45:27;;;;;;;4.70;2.03;;;7.40;1.00;;;;;;5092399;28;20262;-71
2022/04/01 10:53:39;;;;;;;3.53;1.40;;;8.40;1.00;;;;;;5092214;28;20212;-72
2022/04/01 10:56:32;;;;;;;2.53;1.30;;;7.70;1.00;;;;;;5077692;28;20640;-71
2022/04/01 10:59:07;;;;;;;3.53;1.33;;;6.70;1.00;;;;;;5072309;28;20818;-71
2022/04/01 11:01:37;;;;;;;4.23;2.67;;;6.40;1.00;;;;;;5071764;28;20657;-71
2022/04/01 11:04:26;;;;;;;2.17;1.33;;;6.10;1.00;;;;;;5072614;28;20624;-72
2022/04/01 11:06:54;;;;;;;2.83;2.30;;;5.70;1.00;;;;;;5072218;28;20202;-71
2022/04/01 11:09:39;;;;;;;3.40;2.60;;;5.80;1.00;;;;;;5071545;28;20734;-72
2022/04/01 11:12:28;;;;;;;5.40;1.47;;;6.40;1.00;;;;;;5072127;28;20233;-70
2022/04/01 11:15:24;;;;;;;2.67;1.67;;;7.40;1.00;;;;;;5072328;28;20217;-71
2022/04/01 11:18:11;;;;;;;7.77;4.07;;;7.20;1.00;;;;;;5071818;28;20742;-72
2022/04/01 11:20:40;;;;;;;1.23;1.10;;;6.60;1.00;;;;;;5072178;28;20214;-71
2022/04/01 11:23:10;;;;;;;5.20;1.43;;;6.00;1.00;;;;;;5079377;28;20216;-70
2022/04/01 11:25:58;;;;;;;5.83;1.77;;;6.10;1.00;;;;;;5084989;28;20209;-72
2022/04/01 11:28:30;;;;;;;3.27;1.37;;;6.40;1.00;;;;;;5080013;28;20213;-71
2022/04/01 11:31:21;;;;;;;3.70;1.77;;;6.90;1.00;;;;;;5085635;28;20241;-70
2022/04/01 11:34:01;;;;;;;3.07;1.20;;;6.80;1.00;;;;;;5078894;28;20251;-71
2022/04/01 11:36:29;;;;;;;2.53;1.70;;;7.20;1.00;;;;;;5081624;28;20251;-71
2022/04/01 11:38:56;;;;;;;4.10;1.33;;;7.40;1.00;;;;;;5091200;28;20270;-71
2022/04/01 11:41:23;;;;;;;2.13;1.47;;;7.20;1.00;;;;;;5083327;28;20206;-72
2022/04/01 11:43:51;;;;;;;4.87;1.07;;;7.10;1.00;;;;;;5084614;28;20216;-70
2022/04/01 11:46:18;;;;;;;3.50;1.20;;;6.70;1.00;;;;;;5078148;28;20220;-71
2022/04/01 11:48:47;;;;;;;3.83;1.63;;;6.60;1.00;;;;;;5089909;28;20202;-71
2022/04/01 11:51:18;;;;;;;4.30;1.57;;;6.40;1.00;;;;;;5083748;28;20279;-69
2022/04/01 11:53:49;;;;;;;1.80;1.70;;;6.60;1.00;;;;;;5080191;28;20225;-70
2022/04/01 11:56:17;;;;;;;3.13;1.23;;;7.10;1.00;;;;;;5077136;28;20256;-70
2022/04/01 11:58:56;;;;;;;5.30;1.17;;;7.20;1.00;;;;;;5077812;28;20214;-70
2022/04/01 12:01:26;;;;;;;2.53;1.17;;;7.30;1.00;;;;;;5080871;28;20216;-70
2022/04/01 12:04:06;;;;;;;4.23;1.57;;;7.20;1.00;;;;;;5090878;28;20262;-69
2022/04/01 12:09:19;;;;;;;3.77;1.80;;;7.00;1.00;;;;;;5090301;28;20216;-68
2022/04/01 12:11:47;;;;;;;3.53;1.43;;;7.30;1.00;;;;;;5090294;28;20275;-70
2022/04/01 12:14:22;;;;;;;2.73;1.17;;;7.20;1.00;;;;;;5086721;28;20263;-68
2022/04/01 12:16:49;;;;;;;4.07;1.30;;;6.80;1.00;;;;;;5083411;28;20211;-67
2022/04/01 12:19:20;;;;;;;4.17;1.77;;;6.50;1.00;;;;;;5089673;28;20212;-71
2022/04/01 12:21:50;;;;;;;3.83;2.13;;;6.60;1.00;;;;;;5086406;28;20201;-70
2022/04/01 12:24:19;;;;;;;5.57;2.10;;;6.40;1.00;;;;;;5084367;28;20215;-70
2022/04/01 12:26:48;;;;;;;6.43;4.53;;;6.30;1.00;;;;;;5077447;28;20210;-68
2022/04/01 12:29:23;;;;;;;2.53;1.83;;;6.70;1.00;;;;;;5088193;28;20201;-69
2022/04/01 12:31:52;;;;;;;3.30;1.77;;;7.10;1.00;;;;;;5087848;28;20713;-70
2022/04/01 12:34:20;;;;;;;4.60;1.80;;;6.80;1.00;;;;;;5089400;28;20206;-67
2022/04/01 12:36:59;;;;;;;2.40;1.37;;;7.50;1.00;;;;;;5090580;28;20419;-69
2022/04/01 12:39:27;;;;;;;3.60;1.50;;;7.90;1.00;;;;;;5089971;28;20205;-69
2022/04/01 12:41:56;;;;;;;1.80;1.07;;;7.80;1.00;;;;;;5090078;28;20212;-68
2022/04/01 12:44:25;;;;;;;3.03;1.40;;;8.00;1.00;;;;;;5089460;28;20243;-68
2022/04/01 12:46:53;;;;;;;3.60;1.97;;;8.30;1.00;;;;;;5088896;28;20254;-67
2022/04/01 12:49:21;;;;;;;2.67;1.33;;;8.20;1.00;;;;;;5085629;28;20209;-68
2022/04/01 12:51:58;;;;;;;3.53;1.37;;;7.40;1.00;;;;;;5089928;28;20258;-68
2022/04/01 12:54:33;;;;;;;1.27;1.00;;;7.50;1.00;;;;;;5089900;28;20208;-69
2022/04/01 12:57:02;;;;;;;2.03;1.30;;;7.60;1.00;;;;;;5078310;28;20205;-69
2022/04/01 12:59:34;;;;;;;2.17;1.20;;;7.70;1.00;;;;;;5093451;28;20213;-69
2022/04/01 13:02:02;;;;;;;1.80;1.30;;;8.10;1.00;;;;;;5092585;28;20217;-70
2022/04/01 13:04:37;;;;;;;3.60;1.10;;;8.70;1.00;;;;;;5086685;28;20604;-70
2022/04/01 13:07:14;;;;;;;3.20;1.17;;;8.50;1.00;;;;;;5090483;28;20232;-70
2022/04/01 13:09:49;;;;;;;2.13;0.90;;;8.20;1.00;;;;;;5076631;28;20633;-69
2022/04/01 13:12:16;;;;;;;1.27;0.57;;;8.40;1.00;;;;;;5093441;28;20239;-70
2022/04/01 13:14:43;;;;;;;2.57;1.10;;;8.40;1.00;;;;;;5088099;28;20230;-70
2022/04/01 13:17:12;;;;;;;2.43;1.00;;;7.90;1.00;;;;;;5092728;28;20201;-69
2022/04/01 13:19:42;;;;;;;4.20;1.30;;;7.70;1.00;;;;;;5078242;28;20211;-72
2022/04/01 13:22:09;;;;;;;2.10;0.93;;;7.80;1.00;;;;;;5080148;28;20210;-69
2022/04/01 13:24:39;;;;;;;3.60;1.00;;;7.70;1.00;;;;;;5077225;28;20255;-70
2022/04/01 13:27:08;;;;;;;3.77;1.67;;;7.90;1.00;;;;;;5083187;28;20277;-73
2022/04/01 13:29:36;;;;;;;3.17;0.73;;;8.60;1.00;;;;;;5078610;28;20203;-70
2022/04/01 13:32:03;;;;;;;2.53;1.60;;;8.70;1.00;;;;;;5088539;28;20236;-71
2022/04/01 13:34:31;;;;;;;2.60;1.30;;;8.20;1.00;;;;;;5090307;28;20296;-70
2022/04/01 13:36:58;;;;;;;4.40;0.70;;;7.90;1.00;;;;;;5082804;28;20692;-71